Time;durP1;ratioP1;P1;durP2;ratioP2;P2;SDS_P1;SDS_P2;PMS_P1;PMS_P2;Temp;Humidity;BMP_temperature;BMP_pressure;BME280_temperature;BME280_humidity;BME280_pressure;Samples;Min_cycle;Max_cycle;Signal;HPM_P1;HPM_P2
2022/11/15 00:01:17;;;;;;;24.15;18.08;;;9.40;99.90;;;;;;6105811;23;88626;-74
2022/11/15 00:04:06;;;;;;;23.58;16.50;;;9.40;99.90;;;;;;6127779;23;88832;-74
2022/11/15 00:06:51;;;;;;;23.50;17.48;;;9.20;99.90;;;;;;6105206;23;88569;-74
2022/11/15 00:09:36;;;;;;;23.40;17.58;;;9.20;99.90;;;;;;6127695;23;88446;-73
2022/11/15 00:12:28;;;;;;;21.00;15.52;;;9.10;99.90;;;;;;6127383;23;88410;-73
2022/11/15 00:15:13;;;;;;;21.00;15.95;;;9.10;99.90;;;;;;6105214;23;88882;-73
2022/11/15 00:17:59;;;;;;;21.95;15.82;;;9.10;99.90;;;;;;6105131;23;88678;-73
2022/11/15 00:20:44;;;;;;;19.98;16.05;;;9.10;99.90;;;;;;6105402;23;88554;-74
2022/11/15 00:23:30;;;;;;;20.17;14.57;;;9.10;99.90;;;;;;6127235;23;88933;-74
2022/11/15 00:26:16;;;;;;;19.45;14.25;;;9.00;99.90;;;;;;6105363;23;88845;-74
2022/11/15 00:29:01;;;;;;;19.33;14.45;;;8.90;99.90;;;;;;6127737;23;88447;-74
2022/11/15 00:31:47;;;;;;;20.65;14.50;;;8.80;99.90;;;;;;6105425;23;88487;-74
2022/11/15 00:34:32;;;;;;;19.67;14.77;;;8.80;99.90;;;;;;6105186;23;88525;-74
2022/11/15 00:37:17;;;;;;;18.30;14.00;;;8.80;99.90;;;;;;6084733;23;88722;-74
2022/11/15 00:40:03;;;;;;;18.75;13.35;;;8.80;99.90;;;;;;6127505;23;88425;-73
2022/11/15 00:42:49;;;;;;;18.90;14.27;;;8.80;99.90;;;;;;6105230;23;88491;-73
2022/11/15 00:45:34;;;;;;;20.45;14.48;;;8.90;99.90;;;;;;6104575;23;88954;-73
2022/11/15 00:48:19;;;;;;;18.58;14.30;;;8.90;99.90;;;;;;6127274;23;88876;-73
2022/11/15 00:51:05;;;;;;;21.10;15.23;;;9.00;99.90;;;;;;6127493;23;88539;-73
2022/11/15 00:53:51;;;;;;;21.50;15.25;;;9.00;99.90;;;;;;6127543;23;88308;-73
2022/11/15 00:56:36;;;;;;;20.27;15.85;;;9.10;99.90;;;;;;6104898;23;88461;-73
2022/11/15 00:59:21;;;;;;;20.67;16.25;;;9.10;99.90;;;;;;6104738;23;88859;-73
2022/11/15 01:02:07;;;;;;;24.73;17.48;;;9.20;99.90;;;;;;6105279;23;88933;-73
2022/11/15 01:04:52;;;;;;;21.17;16.60;;;9.20;99.90;;;;;;6105407;23;88576;-73
2022/11/15 01:07:38;;;;;;;22.17;16.55;;;9.20;99.90;;;;;;6127240;23;88407;-74
2022/11/15 01:10:25;;;;;;;21.00;16.15;;;9.30;99.90;;;;;;6104725;23;88789;-73
2022/11/15 01:13:10;;;;;;;23.92;17.40;;;9.30;99.90;;;;;;6127416;23;89349;-73
2022/11/15 01:15:56;;;;;;;23.65;17.88;;;9.30;99.90;;;;;;6126092;23;88885;-74
2022/11/15 01:18:42;;;;;;;20.77;14.48;;;9.40;99.90;;;;;;6127153;23;88454;-73
2022/11/15 01:21:27;;;;;;;22.98;16.95;;;9.40;99.90;;;;;;6127087;23;88890;-74
2022/11/15 01:24:13;;;;;;;23.40;16.77;;;9.40;99.90;;;;;;6127139;23;88475;-73
2022/11/15 01:26:59;;;;;;;23.83;16.48;;;9.40;99.90;;;;;;6104863;23;88478;-74
2022/11/15 01:29:44;;;;;;;25.27;16.50;;;9.40;99.90;;;;;;6104661;23;88489;-74
2022/11/15 01:32:29;;;;;;;24.60;16.13;;;9.50;99.90;;;;;;6127251;23;88457;-73
2022/11/15 01:35:15;;;;;;;25.35;16.00;;;9.40;99.90;;;;;;6127429;23;89201;-73
2022/11/15 01:38:00;;;;;;;23.52;17.42;;;9.50;99.90;;;;;;6127339;23;88904;-74
2022/11/15 01:40:47;;;;;;;22.58;15.13;;;9.50;99.90;;;;;;6126738;23;89036;-74
2022/11/15 01:43:35;;;;;;;22.00;16.27;;;9.50;99.90;;;;;;6126999;23;88453;-73
2022/11/15 01:46:26;;;;;;;24.13;16.90;;;9.60;99.90;;;;;;6104440;23;88493;-74
2022/11/15 01:49:15;;;;;;;24.05;16.08;;;9.70;99.90;;;;;;6104943;23;88797;-74
2022/11/15 01:52:05;;;;;;;24.67;16.42;;;9.60;99.90;;;;;;6104924;23;88490;-74
2022/11/15 01:54:56;;;;;;;25.27;16.27;;;9.70;99.90;;;;;;6126996;23;88643;-74
2022/11/15 01:57:45;;;;;;;21.83;15.25;;;9.70;99.90;;;;;;6127003;23;88454;-74
2022/11/15 02:00:31;;;;;;;22.70;15.20;;;9.70;99.90;;;;;;6127121;23;88408;-74
2022/11/15 02:03:16;;;;;;;21.88;16.08;;;9.70;99.90;;;;;;6104770;23;88342;-73
2022/11/15 02:06:04;;;;;;;21.52;15.73;;;9.70;99.90;;;;;;6127353;23;88832;-74
2022/11/15 02:08:50;;;;;;;22.63;16.55;;;9.70;99.90;;;;;;6126657;23;88702;-73
2022/11/15 02:11:36;;;;;;;24.13;16.25;;;9.70;99.90;;;;;;6126875;23;88414;-73
2022/11/15 02:14:22;;;;;;;21.25;16.33;;;9.80;99.90;;;;;;6127135;23;88469;-73
2022/11/15 02:17:15;;;;;;;21.00;14.65;;;9.80;99.90;;;;;;6084019;23;88721;-74
2022/11/15 02:20:20;;;;;;;23.85;17.25;;;9.80;99.90;;;;;;6127155;23;88946;-74
2022/11/15 02:23:24;;;;;;;;;;;9.80;99.90;;;;;;6127206;23;88593;-74
2022/11/15 02:26:16;;;;;;;22.58;15.55;;;9.70;99.90;;;;;;6129364;23;88141;-74
2022/11/15 02:29:11;;;;;;;22.30;16.05;;;9.70;99.90;;;;;;6127132;23;88847;-74
2022/11/15 02:32:27;;;;;;;20.80;14.70;;;9.80;99.90;;;;;;6126690;23;88411;-74
2022/11/15 02:35:31;;;;;;;26.15;15.85;;;9.80;99.90;;;;;;6126929;23;88429;-74
2022/11/15 02:38:16;;;;;;;23.60;16.50;;;9.90;99.90;;;;;;6126692;23;88942;-74
2022/11/15 02:41:07;;;;;;;22.42;16.15;;;9.80;99.90;;;;;;6126686;23;88730;-74
2022/11/15 02:44:03;;;;;;;21.70;14.65;;;9.90;99.90;;;;;;6104313;23;88428;-74
2022/11/15 02:47:13;;;;;;;25.77;16.48;;;9.90;99.90;;;;;;6126439;23;88510;-74
2022/11/15 02:50:02;;;;;;;26.00;15.57;;;9.90;99.90;;;;;;6126488;23;88404;-73
2022/11/15 02:52:49;;;;;;;27.42;15.88;;;9.90;99.90;;;;;;6126480;23;88884;-74
2022/11/15 02:55:40;;;;;;;24.50;15.82;;;9.90;99.90;;;;;;6126757;23;88427;-74
2022/11/15 02:58:37;;;;;;;25.58;15.35;;;10.00;99.90;;;;;;6127143;23;88434;-74
2022/11/15 03:01:37;;;;;;;27.52;16.60;;;10.00;99.90;;;;;;6105604;23;88426;-74
2022/11/15 03:04:44;;;;;;;25.55;15.73;;;9.90;99.90;;;;;;6128032;23;88753;-74
2022/11/15 03:07:53;;;;;;;26.70;16.65;;;10.00;99.90;;;;;;6127785;23;88646;-74
2022/11/15 03:10:50;;;;;;;;;;;10.00;99.90;;;;;;6128280;23;88433;-74
2022/11/15 03:13:44;;;;;;;26.65;15.15;;;9.90;99.90;;;;;;6130318;23;88243;-74
2022/11/15 03:16:41;;;;;;;25.13;15.82;;;9.80;99.90;;;;;;6128010;23;88354;-74
2022/11/15 03:19:46;;;;;;;33.40;17.27;;;9.90;99.90;;;;;;6127952;23;88358;-73
2022/11/15 03:22:37;;;;;;;27.92;15.70;;;9.90;99.90;;;;;;6127927;23;88338;-74
2022/11/15 03:25:25;;;;;;;28.65;17.23;;;10.00;99.90;;;;;;6127932;23;88402;-74
2022/11/15 03:28:17;;;;;;;33.28;17.48;;;10.00;99.90;;;;;;6128046;23;88835;-73
2022/11/15 03:31:46;;;;;;;29.45;16.25;;;9.90;99.90;;;;;;6127786;23;88946;-74
2022/11/15 03:34:19;;;;;;;30.08;16.70;;;9.90;99.90;;;;;;6127746;23;88540;-74
2022/11/15 03:37:05;;;;;;;;;;;10.00;99.90;;;;;;6128055;23;89080;-74
2022/11/15 03:39:51;;;;;;;24.60;16.27;;;9.90;99.90;;;;;;6107500;23;88512;-74
2022/11/15 03:42:52;;;;;;;26.63;15.88;;;9.90;99.90;;;;;;6128366;23;88872;-74
2022/11/15 03:45:45;;;;;;;27.20;16.80;;;10.00;99.90;;;;;;6105568;23;89024;-74
2022/11/15 03:48:37;;;;;;;31.45;17.40;;;10.00;99.90;;;;;;6127574;23;88382;-74
2022/11/15 03:51:22;;;;;;;29.27;18.35;;;10.00;99.90;;;;;;6126271;23;88410;-74
2022/11/15 03:54:08;;;;;;;29.70;17.08;;;10.00;99.90;;;;;;6105123;23;88366;-73
2022/11/15 03:56:53;;;;;;;28.73;17.83;;;10.00;99.90;;;;;;6127742;23;88336;-74
2022/11/15 03:59:39;;;;;;;28.05;18.23;;;10.00;99.90;;;;;;6127812;23;88449;-74
2022/11/15 04:02:24;;;;;;;32.80;19.00;;;10.00;99.90;;;;;;6127618;23;88787;-74
2022/11/15 04:05:10;;;;;;;31.23;18.77;;;9.90;99.90;;;;;;6104865;23;88740;-74
2022/11/15 04:07:55;;;;;;;34.92;19.48;;;10.00;99.90;;;;;;6127501;23;88504;-74
2022/11/15 04:10:41;;;;;;;34.63;19.48;;;9.90;99.90;;;;;;6105067;23;88446;-74
2022/11/15 04:13:26;;;;;;;39.38;20.10;;;9.90;99.90;;;;;;6127691;23;88736;-74
2022/11/15 04:16:12;;;;;;;35.38;18.15;;;9.90;99.90;;;;;;6127581;23;89045;-74
2022/11/15 04:25:05;;;;;;;33.60;18.77;;;9.90;99.90;;;;;;6127408;23;88875;-74
2022/11/15 04:27:51;;;;;;;45.05;21.10;;;9.90;99.90;;;;;;6105114;23;88550;-73
2022/11/15 04:30:37;;;;;;;42.97;22.73;;;9.90;99.90;;;;;;6127793;23;88905;-74
2022/11/15 04:33:22;;;;;;;38.13;21.35;;;9.90;99.90;;;;;;6084360;23;89206;-74
2022/11/15 04:39:12;;;;;;;42.70;23.83;;;10.00;99.90;;;;;;6127342;23;88605;-73
2022/11/15 04:41:57;;;;;;;47.88;23.70;;;9.90;99.90;;;;;;6127197;23;88439;-74
2022/11/15 04:44:43;;;;;;;49.25;26.15;;;9.90;99.90;;;;;;6127551;23;88430;-73
2022/11/15 04:47:29;;;;;;;46.88;24.67;;;10.00;99.90;;;;;;6127599;23;88486;-74
2022/11/15 04:50:15;;;;;;;48.58;23.77;;;10.00;99.90;;;;;;6127231;23;88401;-74
2022/11/15 04:53:00;;;;;;;56.47;28.02;;;10.00;99.90;;;;;;6125986;23;88340;-74
2022/11/15 04:55:46;;;;;;;59.65;29.25;;;10.10;99.90;;;;;;6104962;23;88518;-74
2022/11/15 04:58:32;;;;;;;57.67;28.00;;;10.10;99.90;;;;;;6127509;23;88642;-74
2022/11/15 05:01:17;;;;;;;56.63;27.70;;;10.10;99.90;;;;;;6126948;23;88756;-74
2022/11/15 05:04:21;;;;;;;55.08;25.38;;;10.20;99.90;;;;;;6104903;23;88443;-74
2022/11/15 05:07:07;;;;;;;58.83;26.90;;;10.20;99.90;;;;;;6127172;23;88430;-74
2022/11/15 05:09:52;;;;;;;51.80;24.55;;;10.20;99.90;;;;;;6104991;23;88869;-74
2022/11/15 05:12:38;;;;;;;54.30;28.23;;;10.20;99.90;;;;;;6105080;23;88405;-74
2022/11/15 05:15:23;;;;;;;52.42;28.30;;;10.20;99.90;;;;;;6127449;23;88357;-74
2022/11/15 05:18:09;;;;;;;41.92;24.10;;;10.20;99.90;;;;;;6127141;23;88488;-74
2022/11/15 05:20:54;;;;;;;55.88;25.60;;;10.20;99.90;;;;;;6125552;23;88639;-74
2022/11/15 05:23:41;;;;;;;49.33;26.30;;;10.20;99.90;;;;;;6127170;23;88470;-74
2022/11/15 05:26:26;;;;;;;51.45;26.88;;;10.30;99.90;;;;;;6127433;23;88440;-74
2022/11/15 05:29:11;;;;;;;47.28;25.02;;;10.40;99.90;;;;;;6126823;23;88918;-74
2022/11/15 05:31:57;;;;;;;47.13;26.50;;;10.40;99.90;;;;;;6127308;23;88875;-74
2022/11/15 05:34:43;;;;;;;42.70;24.52;;;10.40;99.90;;;;;;6084153;23;88646;-74
2022/11/15 05:37:29;;;;;;;54.50;26.73;;;10.40;99.90;;;;;;6125845;23;88540;-74
2022/11/15 05:40:15;;;;;;;47.47;25.48;;;10.50;99.90;;;;;;6127086;23;88728;-74
2022/11/15 05:43:03;;;;;;;45.85;24.13;;;10.50;99.90;;;;;;6126946;23;88876;-74
2022/11/15 05:45:48;;;;;;;45.05;24.55;;;10.50;99.90;;;;;;6127252;23;88413;-74
2022/11/15 05:48:35;;;;;;;43.80;25.30;;;10.60;99.90;;;;;;6127540;23;88344;-74
2022/11/15 05:51:22;;;;;;;43.45;23.95;;;10.60;99.90;;;;;;6126990;23;88574;-74
2022/11/15 05:54:07;;;;;;;39.28;23.98;;;10.60;99.90;;;;;;6126996;23;88868;-74
2022/11/15 05:56:54;;;;;;;42.65;23.75;;;10.60;99.90;;;;;;6104615;23;88965;-74
2022/11/15 05:59:43;;;;;;;42.45;23.20;;;10.70;99.90;;;;;;6127136;23;88425;-74
2022/11/15 06:02:28;;;;;;;39.35;22.48;;;10.70;99.90;;;;;;6104815;23;88511;-74
2022/11/15 06:05:14;;;;;;;37.97;23.75;;;10.70;99.90;;;;;;6104639;23;88864;-74
2022/11/15 06:07:59;;;;;;;33.10;22.20;;;10.80;99.90;;;;;;6127138;23;88411;-74
2022/11/15 06:10:45;;;;;;;36.50;21.98;;;10.80;99.90;;;;;;6127149;23;88418;-74
2022/11/15 06:13:31;;;;;;;36.75;21.52;;;10.90;99.90;;;;;;6104884;23;88457;-74
2022/11/15 06:16:16;;;;;;;32.22;20.48;;;10.90;99.90;;;;;;6104744;23;88860;-74
2022/11/15 06:19:02;;;;;;;36.25;21.67;;;11.00;99.90;;;;;;6127016;23;88423;-74
2022/11/15 06:21:47;;;;;;;33.38;21.35;;;11.00;99.90;;;;;;6083934;23;88530;-74
2022/11/15 06:24:33;;;;;;;37.88;22.50;;;11.10;99.90;;;;;;6126487;23;89030;-74
2022/11/15 06:27:18;;;;;;;34.53;22.10;;;11.10;99.90;;;;;;6104162;23;88764;-74
2022/11/15 06:30:04;;;;;;;36.50;22.42;;;11.20;99.90;;;;;;6104507;23;88529;-74
2022/11/15 06:32:50;;;;;;;34.88;21.83;;;11.20;99.90;;;;;;6127393;23;88487;-74
2022/11/15 06:35:36;;;;;;;38.33;23.33;;;11.30;99.90;;;;;;6128144;23;88384;-74
2022/11/15 06:38:21;;;;;;;33.15;20.88;;;11.30;99.90;;;;;;6105348;23;88862;-74
2022/11/15 06:41:09;;;;;;;31.95;20.05;;;11.30;99.90;;;;;;6105608;23;88404;-74
2022/11/15 06:43:56;;;;;;;31.90;19.75;;;11.30;99.90;;;;;;6127971;23;88468;-74
2022/11/15 06:46:41;;;;;;;28.42;19.92;;;11.40;99.90;;;;;;6128020;23;88492;-74
2022/11/15 06:49:26;;;;;;;30.40;20.15;;;11.40;99.90;;;;;;6127701;23;88863;-74
2022/11/15 06:52:12;;;;;;;30.80;20.08;;;11.40;99.90;;;;;;6105175;23;88739;-75
2022/11/15 06:54:57;;;;;;;27.23;19.60;;;11.50;99.90;;;;;;6128041;23;88420;-74
2022/11/15 06:57:51;;;;;;;31.55;20.55;;;11.50;99.90;;;;;;6127983;23;88420;-74
2022/11/15 07:00:36;;;;;;;29.80;19.83;;;11.50;99.90;;;;;;6128031;23;89150;-74
2022/11/15 07:03:22;;;;;;;30.70;20.08;;;11.50;99.90;;;;;;6127704;23;88447;-74
2022/11/15 07:06:09;;;;;;;32.67;19.50;;;11.50;99.90;;;;;;6105604;23;88509;-74
2022/11/15 07:08:54;;;;;;;28.35;20.30;;;11.60;99.90;;;;;;6128018;23;88456;-74
2022/11/15 07:11:40;;;;;;;28.80;19.52;;;11.60;99.90;;;;;;6105736;23;88870;-74
2022/11/15 07:14:25;;;;;;;32.90;20.13;;;11.60;99.90;;;;;;6127643;23;88588;-74
2022/11/15 07:17:11;;;;;;;25.38;18.70;;;11.60;99.90;;;;;;6127893;23;88419;-74
2022/11/15 07:19:56;;;;;;;28.45;20.17;;;11.70;99.90;;;;;;6127623;23;88776;-74
2022/11/15 07:22:42;;;;;;;31.92;19.52;;;11.70;99.90;;;;;;6127705;23;88879;-74
2022/11/15 07:25:28;;;;;;;29.55;20.23;;;11.70;99.90;;;;;;6105065;23;88410;-74
2022/11/15 07:28:13;;;;;;;28.55;19.73;;;11.70;99.90;;;;;;6127919;23;88377;-74
2022/11/15 07:31:06;;;;;;;26.45;18.33;;;11.70;99.90;;;;;;6127841;23;88400;-74
2022/11/15 07:33:52;;;;;;;27.00;19.35;;;11.80;99.90;;;;;;6105466;23;88840;-74
2022/11/15 07:36:37;;;;;;;28.08;18.95;;;11.80;99.90;;;;;;6126604;23;88496;-74
2022/11/15 07:39:23;;;;;;;27.42;19.65;;;11.80;99.90;;;;;;6105535;23;88373;-74
2022/11/15 07:45:13;;;;;;;30.05;19.35;;;11.90;99.90;;;;;;6127561;23;88737;-74
2022/11/15 07:47:59;;;;;;;28.80;19.55;;;11.90;99.90;;;;;;6104945;23;88757;-74
2022/11/15 07:50:44;;;;;;;24.17;17.55;;;12.00;99.90;;;;;;6105439;23;88538;-74
2022/11/15 07:53:30;;;;;;;26.33;18.05;;;12.00;99.90;;;;;;6084351;23;88461;-74
2022/11/15 07:56:15;;;;;;;26.65;18.40;;;12.10;99.90;;;;;;6127732;23;88756;-74
2022/11/15 07:59:01;;;;;;;22.25;17.45;;;12.10;99.90;;;;;;6127786;23;88515;-73
2022/11/15 08:01:46;;;;;;;24.00;17.30;;;12.20;99.90;;;;;;6127867;23;88937;-74
2022/11/15 08:04:32;;;;;;;22.17;16.75;;;12.20;99.90;;;;;;6105319;23;88912;-73
2022/11/15 08:07:17;;;;;;;25.02;18.13;;;12.30;99.90;;;;;;6128051;23;88914;-73
2022/11/15 08:10:05;;;;;;;26.05;18.98;;;12.30;99.90;;;;;;6127743;23;89026;-73
2022/11/15 08:13:09;;;;;;;24.17;17.52;;;12.40;99.90;;;;;;6127731;23;88346;-73
2022/11/15 08:16:02;;;;;;;21.77;17.45;;;12.50;99.90;;;;;;6105039;23;88928;-73
2022/11/15 08:18:48;;;;;;;19.35;15.68;;;12.60;99.90;;;;;;6127769;23;88893;-74
2022/11/15 08:21:33;;;;;;;23.70;17.95;;;12.60;99.90;;;;;;6127306;23;89127;-74
2022/11/15 08:24:18;;;;;;;22.42;17.05;;;12.70;99.90;;;;;;6084358;23;88501;-74
2022/11/15 08:27:04;;;;;;;23.70;17.02;;;12.70;99.90;;;;;;6127693;23;88451;-74
2022/11/15 08:29:50;;;;;;;29.00;16.63;;;12.70;99.90;;;;;;6127766;23;89011;-74
2022/11/15 08:32:38;;;;;;;25.63;16.98;;;12.70;99.90;;;;;;6105652;23;88440;-74
2022/11/15 08:35:24;;;;;;;20.58;16.58;;;12.80;99.90;;;;;;6127823;23;88451;-74
2022/11/15 08:38:13;;;;;;;21.80;17.70;;;12.90;99.90;;;;;;6127496;23;88457;-73
2022/11/15 08:41:02;;;;;;;20.27;16.63;;;13.00;99.90;;;;;;6127632;23;88897;-74
2022/11/15 08:43:47;;;;;;;23.42;17.10;;;13.00;99.90;;;;;;6126987;23;88685;-74
2022/11/15 08:46:33;;;;;;;22.02;17.65;;;13.10;99.90;;;;;;6104867;23;88494;-74
2022/11/15 08:49:19;;;;;;;19.73;16.00;;;13.20;99.90;;;;;;6105209;23;88336;-74
2022/11/15 08:52:04;;;;;;;22.77;17.25;;;13.20;99.90;;;;;;6127496;23;88318;-74
2022/11/15 08:54:50;;;;;;;26.38;18.45;;;13.30;99.90;;;;;;6127259;23;88369;-74
2022/11/15 08:57:35;;;;;;;22.23;17.75;;;13.30;99.90;;;;;;6104171;23;88539;-74
2022/11/15 09:00:21;;;;;;;21.65;17.15;;;13.30;99.90;;;;;;6127508;23;88474;-74
2022/11/15 09:03:09;;;;;;;20.40;17.27;;;13.30;99.90;;;;;;6127575;23;88715;-74
2022/11/15 09:05:56;;;;;;;23.08;17.60;;;13.40;99.90;;;;;;6127257;23;88429;-74
2022/11/15 09:08:42;;;;;;;25.67;18.15;;;13.40;99.90;;;;;;6127411;23;88873;-73
2022/11/15 09:11:32;;;;;;;23.73;18.17;;;13.40;99.90;;;;;;6126869;23;88980;-74
2022/11/15 09:14:17;;;;;;;21.52;18.10;;;13.40;99.90;;;;;;6127370;23;88932;-73
2022/11/15 09:17:03;;;;;;;25.13;17.58;;;13.40;99.90;;;;;;6105009;23;88422;-74
2022/11/15 09:19:49;;;;;;;21.20;17.50;;;13.40;99.90;;;;;;6104807;23;88546;-74
2022/11/15 09:22:36;;;;;;;24.05;18.23;;;13.40;99.90;;;;;;6127033;23;88609;-74
2022/11/15 09:25:21;;;;;;;24.20;17.27;;;13.40;99.90;;;;;;6127474;23;88895;-74
2022/11/15 09:28:08;;;;;;;26.08;18.60;;;13.40;99.90;;;;;;6127235;23;88394;-73
2022/11/15 09:31:02;;;;;;;23.60;17.65;;;13.40;99.90;;;;;;6127368;23;88731;-74
2022/11/15 09:33:47;;;;;;;25.35;18.85;;;13.40;99.90;;;;;;6127175;23;88356;-74
2022/11/15 09:36:33;;;;;;;23.05;18.10;;;13.30;99.90;;;;;;6127367;23;88793;-73
2022/11/15 09:39:18;;;;;;;24.40;19.08;;;13.30;99.90;;;;;;6104804;23;88766;-74
2022/11/15 09:42:45;;;;;;;23.60;17.58;;;13.40;99.90;;;;;;6127265;23;88396;-74
2022/11/15 09:45:52;;;;;;;23.38;18.63;;;13.40;99.90;;;;;;6104798;23;88401;-74
2022/11/15 09:49:15;;;;;;;22.13;17.40;;;13.40;99.90;;;;;;6047984;23;89063;-74
2022/11/15 09:52:11;;;;;;;23.20;18.85;;;13.50;99.90;;;;;;6081659;23;91568;-74
2022/11/15 09:54:41;;;;;;;21.45;17.17;;;13.50;99.90;;;;;;6075961;23;88400;-74
2022/11/15 09:57:30;;;;;;;22.27;18.38;;;13.60;99.90;;;;;;6079736;23;91285;-74
2022/11/15 10:00:17;;;;;;;22.58;18.10;;;13.60;99.90;;;;;;6100423;23;90916;-74
2022/11/15 10:03:13;;;;;;;25.45;19.05;;;13.70;99.90;;;;;;6100168;23;91679;-74
2022/11/15 10:05:43;;;;;;;21.48;17.77;;;13.70;99.90;;;;;;6075866;23;91062;-74
2022/11/15 10:08:22;;;;;;;20.73;17.77;;;13.70;99.90;;;;;;6126636;23;89490;-74
2022/11/15 10:11:01;;;;;;;21.98;18.10;;;13.70;99.90;;;;;;6100302;23;91992;-74
2022/11/15 10:13:50;;;;;;;21.63;18.50;;;13.70;99.90;;;;;;6126641;23;88891;-74
2022/11/15 10:16:36;;;;;;;20.98;18.42;;;13.70;99.90;;;;;;6100138;23;90870;-74
2022/11/15 10:19:18;;;;;;;20.38;17.20;;;13.80;99.90;;;;;;6126517;23;88989;-74
2022/11/15 10:21:48;;;;;;;23.10;18.20;;;13.70;99.90;;;;;;6075420;23;91080;-73
2022/11/15 10:24:23;;;;;;;19.17;16.63;;;13.70;99.90;;;;;;6100387;23;88365;-74
2022/11/15 10:26:50;;;;;;;21.25;18.60;;;13.70;99.90;;;;;;6127231;23;89003;-74
2022/11/15 10:29:22;;;;;;;20.63;18.38;;;13.60;99.90;;;;;;6100369;23;88688;-74
2022/11/15 10:31:53;;;;;;;20.58;17.73;;;13.70;99.90;;;;;;6099794;23;92017;-74
2022/11/15 10:34:22;;;;;;;21.23;18.70;;;13.70;99.90;;;;;;6126622;23;88964;-74
2022/11/15 10:36:58;;;;;;;20.80;17.80;;;13.70;99.90;;;;;;6126020;23;104327;-74
2022/11/15 10:39:25;;;;;;;18.92;16.52;;;13.70;99.90;;;;;;6126988;23;88797;-74
2022/11/15 10:41:52;;;;;;;19.40;15.63;;;13.60;99.90;;;;;;6099556;23;91812;-74
2022/11/15 10:44:21;;;;;;;17.25;15.30;;;13.60;99.90;;;;;;6126723;23;88355;-74
2022/11/15 10:46:54;;;;;;;16.30;14.23;;;13.60;99.90;;;;;;6099305;23;90569;-74
2022/11/15 10:49:24;;;;;;;15.77;13.70;;;13.70;99.90;;;;;;6126616;23;88861;-74
2022/11/15 10:52:12;;;;;;;16.88;14.93;;;13.70;99.90;;;;;;6126598;23;88424;-74
2022/11/15 10:54:58;;;;;;;17.90;15.27;;;13.80;99.90;;;;;;6100071;23;89781;-74
2022/11/15 10:57:37;;;;;;;15.55;12.88;;;13.80;99.90;;;;;;6126757;23;88371;-74
2022/11/15 11:00:26;;;;;;;14.88;12.40;;;13.70;99.90;;;;;;6126048;23;89553;-74
2022/11/15 11:02:55;;;;;;;15.88;13.32;;;13.80;99.90;;;;;;6126198;23;89408;-74
2022/11/15 11:05:31;;;;;;;15.98;14.27;;;13.80;99.90;;;;;;6126749;23;88702;-74
2022/11/15 11:08:09;;;;;;;14.32;12.90;;;13.90;99.90;;;;;;6099383;23;88412;-74
2022/11/15 11:10:36;;;;;;;15.70;14.10;;;13.80;99.90;;;;;;6126504;23;88587;-74
2022/11/15 11:13:34;;;;;;;16.35;14.65;;;13.80;99.90;;;;;;6126452;23;89350;-74
2022/11/15 11:16:25;;;;;;;15.77;14.05;;;13.90;99.90;;;;;;6126359;23;88729;-74
2022/11/15 11:18:55;;;;;;;16.10;14.55;;;14.00;99.90;;;;;;6126460;23;88477;-74
2022/11/15 11:21:45;;;;;;;16.52;14.93;;;14.10;99.90;;;;;;6101518;23;88894;-74
2022/11/15 11:24:40;;;;;;;17.83;14.98;;;14.20;99.90;;;;;;6100347;23;88386;-74
2022/11/15 11:27:18;;;;;;;14.82;12.98;;;14.30;99.90;;;;;;6100867;23;90573;-74
2022/11/15 11:29:51;;;;;;;15.88;14.05;;;14.40;99.90;;;;;;6128126;23;88489;-74
2022/11/15 11:32:30;;;;;;;14.77;13.30;;;14.40;99.90;;;;;;6101647;23;88695;-74
2022/11/15 11:35:24;;;;;;;12.95;11.75;;;14.50;99.90;;;;;;6127625;23;88357;-74
2022/11/15 11:37:59;;;;;;;13.20;11.88;;;14.60;99.90;;;;;;6100919;23;90643;-74
2022/11/15 11:40:34;;;;;;;12.27;11.10;;;14.60;99.90;;;;;;6101303;23;91014;-74
2022/11/15 11:43:25;;;;;;;12.18;10.40;;;14.80;99.90;;;;;;6127573;23;88581;-74
2022/11/15 11:45:59;;;;;;;12.60;11.40;;;14.90;99.90;;;;;;6127665;23;88553;-74
2022/11/15 11:48:37;;;;;;;11.65;10.40;;;15.00;99.90;;;;;;6100350;23;89098;-74
2022/11/15 11:51:23;;;;;;;8.68;7.75;;;15.10;99.90;;;;;;6100980;23;90750;-74
2022/11/15 11:53:57;;;;;;;7.90;7.05;;;15.20;99.90;;;;;;6128152;23;89482;-74
2022/11/15 11:56:31;;;;;;;9.00;7.82;;;15.30;99.90;;;;;;6126812;23;89396;-74
2022/11/15 11:59:07;;;;;;;7.53;6.55;;;15.40;99.90;;;;;;6102206;23;88009;-74
2022/11/15 12:01:40;;;;;;;7.63;6.20;;;15.50;99.90;;;;;;6126824;23;91160;-74
2022/11/15 12:04:34;;;;;;;6.60;4.05;;;15.50;99.90;;;;;;6128232;23;88984;-74
2022/11/15 12:07:21;;;;;;;4.68;4.28;;;15.50;99.90;;;;;;6128368;23;87933;-74
2022/11/15 12:10:17;;;;;;;4.03;3.63;;;15.50;99.90;;;;;;6077486;23;89485;-74
2022/11/15 12:13:08;;;;;;;4.30;3.22;;;15.50;99.90;;;;;;6118207;23;87453;-74
2022/11/15 12:15:58;;;;;;;3.92;3.28;;;15.40;99.90;;;;;;6128374;23;88577;-74
2022/11/15 12:18:25;;;;;;;6.00;3.95;;;15.50;99.90;;;;;;6090750;23;92695;-74
2022/11/15 12:21:00;;;;;;;4.80;3.80;;;15.40;99.90;;;;;;6128096;23;88752;-74
2022/11/15 12:23:34;;;;;;;5.20;4.53;;;15.40;99.90;;;;;;6101809;23;88240;-74
2022/11/15 12:26:09;;;;;;;5.22;4.32;;;15.40;99.90;;;;;;6101106;23;91296;-74
2022/11/15 12:28:42;;;;;;;4.70;3.92;;;15.30;99.90;;;;;;6128354;23;88681;-74
2022/11/15 12:31:34;;;;;;;5.32;4.80;;;15.30;99.90;;;;;;6128265;23;87963;-74
2022/11/15 12:34:22;;;;;;;5.78;4.57;;;15.20;99.90;;;;;;6101212;23;90916;-74
2022/11/15 12:36:51;;;;;;;6.57;4.70;;;15.10;99.90;;;;;;6107916;23;88865;-74
2022/11/15 12:39:19;;;;;;;4.95;4.55;;;15.00;99.90;;;;;;6128494;23;88558;-74
2022/11/15 12:41:57;;;;;;;6.10;4.50;;;15.00;99.90;;;;;;6128569;23;88198;-74
2022/11/15 12:44:30;;;;;;;8.13;4.15;;;15.00;99.90;;;;;;6128109;23;88025;-73
2022/11/15 12:46:57;;;;;;;6.22;4.53;;;14.90;99.90;;;;;;6101174;23;92106;-73
2022/11/15 12:49:43;;;;;;;8.32;4.75;;;14.70;99.90;;;;;;6101180;23;92242;-73
2022/11/15 12:52:10;;;;;;;6.32;4.45;;;14.80;99.90;;;;;;6101708;23;88535;-73
2022/11/15 12:54:40;;;;;;;5.32;4.78;;;14.70;99.90;;;;;;6101511;23;89725;-73
2022/11/15 12:57:07;;;;;;;6.65;4.60;;;14.70;99.90;;;;;;6128066;23;88814;-74
2022/11/15 13:00:03;;;;;;;7.43;4.63;;;14.60;99.90;;;;;;6100786;23;104600;-73
2022/11/15 13:02:35;;;;;;;3.85;3.50;;;14.50;99.90;;;;;;6128372;23;87963;-74
2022/11/15 13:05:20;;;;;;;5.10;3.60;;;14.40;99.90;;;;;;6102399;23;88443;-74
2022/11/15 13:07:47;;;;;;;5.35;3.63;;;14.50;99.90;;;;;;6101645;23;91176;-74
2022/11/15 13:10:13;;;;;;;4.45;2.20;;;14.60;99.90;;;;;;6127976;23;88442;-74
2022/11/15 13:12:46;;;;;;;3.67;2.60;;;14.70;99.90;;;;;;6127915;23;88758;-73
2022/11/15 13:15:13;;;;;;;3.63;2.60;;;14.90;99.90;;;;;;6101575;23;88401;-74
2022/11/15 13:17:45;;;;;;;3.35;2.67;;;14.90;99.90;;;;;;6128320;23;88803;-74
2022/11/15 13:20:15;;;;;;;3.78;3.10;;;15.10;99.90;;;;;;6128116;23;88360;-73
2022/11/15 13:22:51;;;;;;;4.57;2.58;;;15.10;99.90;;;;;;6128230;23;87964;-74
2022/11/15 13:25:27;;;;;;;6.05;2.58;;;15.10;99.90;;;;;;6101042;23;90943;-74
2022/11/15 13:27:57;;;;;;;3.42;2.55;;;15.00;99.90;;;;;;6128189;23;88792;-74
2022/11/15 13:30:29;;;;;;;3.95;2.80;;;15.00;99.90;;;;;;6128447;23;88583;-74
2022/11/15 13:33:00;;;;;;;3.15;2.70;;;15.00;99.90;;;;;;6077157;23;88071;-74
2022/11/15 13:35:31;;;;;;;4.00;2.70;;;14.90;99.90;;;;;;6101331;23;90912;-74
2022/11/15 13:38:04;;;;;;;2.85;2.33;;;14.90;99.90;;;;;;6101412;23;89559;-74
2022/11/15 13:40:36;;;;;;;3.05;2.53;;;14.80;99.90;;;;;;6100987;23;91900;-73
2022/11/15 13:43:22;;;;;;;6.25;3.47;;;14.80;99.90;;;;;;6127643;23;88618;-74
2022/11/15 13:46:06;;;;;;;5.50;4.50;;;14.80;99.90;;;;;;6128177;23;88115;-74
2022/11/15 13:48:33;;;;;;;4.30;3.15;;;14.70;99.90;;;;;;6127969;23;88707;-74
2022/11/15 13:51:19;;;;;;;3.72;3.33;;;14.70;99.90;;;;;;6101263;23;91183;-73
2022/11/15 13:53:51;;;;;;;5.18;3.00;;;14.60;99.90;;;;;;6128178;23;87918;-73
2022/11/15 13:56:19;;;;;;;3.58;2.97;;;14.60;99.90;;;;;;6128231;23;88413;-74
2022/11/15 13:58:47;;;;;;;4.13;2.80;;;14.50;99.90;;;;;;6101617;23;88726;-74
2022/11/15 14:01:17;;;;;;;3.92;3.15;;;14.50;99.90;;;;;;6100759;23;91208;-74
2022/11/15 14:03:57;;;;;;;3.42;2.92;;;14.50;99.90;;;;;;6127572;23;88609;-73
2022/11/15 14:06:27;;;;;;;5.43;3.00;;;14.50;99.90;;;;;;6127813;23;88146;-73
2022/11/15 14:09:08;;;;;;;4.22;2.70;;;14.40;99.90;;;;;;6128162;23;88722;-73
2022/11/15 14:11:36;;;;;;;5.65;3.00;;;14.30;99.90;;;;;;6100909;23;88659;-73
2022/11/15 14:14:13;;;;;;;5.03;3.00;;;14.30;99.90;;;;;;6101481;23;88048;-73